sensor_id;sensor_type;location;lat;lon;timestamp;P1;durP1;ratioP1;P2;durP2;ratioP2
19341;SDS011;9807;48.258;12.690;2022-12-18T00:01:01;43.43;;;22.10;;
19341;SDS011;9807;48.258;12.690;2022-12-18T00:03:31;43.80;;;22.17;;
19341;SDS011;9807;48.258;12.690;2022-12-18T00:05:58;45.83;;;22.90;;
19341;SDS011;9807;48.258;12.690;2022-12-18T00:08:24;45.60;;;23.37;;
19341;SDS011;9807;48.258;12.690;2022-12-18T00:10:49;45.77;;;23.07;;
19341;SDS011;9807;48.258;12.690;2022-12-18T00:13:15;46.63;;;23.10;;
19341;SDS011;9807;48.258;12.690;2022-12-18T00:15:41;44.37;;;23.13;;
19341;SDS011;9807;48.258;12.690;2022-12-18T00:18:07;46.17;;;23.27;;
19341;SDS011;9807;48.258;12.690;2022-12-18T00:20:36;42.30;;;21.77;;
19341;SDS011;9807;48.258;12.690;2022-12-18T00:23:03;46.00;;;22.50;;
19341;SDS011;9807;48.258;12.690;2022-12-18T00:25:32;43.93;;;22.37;;
19341;SDS011;9807;48.258;12.690;2022-12-18T00:27:59;46.50;;;23.73;;
19341;SDS011;9807;48.258;12.690;2022-12-18T00:30:25;49.33;;;23.93;;
19341;SDS011;9807;48.258;12.690;2022-12-18T00:32:51;47.80;;;23.53;;
19341;SDS011;9807;48.258;12.690;2022-12-18T00:35:16;47.13;;;23.80;;
19341;SDS011;9807;48.258;12.690;2022-12-18T00:37:42;46.93;;;23.40;;
19341;SDS011;9807;48.258;12.690;2022-12-18T00:40:08;47.40;;;23.33;;
19341;SDS011;9807;48.258;12.690;2022-12-18T00:42:37;44.30;;;22.70;;
19341;SDS011;9807;48.258;12.690;2022-12-18T00:45:27;43.53;;;22.40;;
19341;SDS011;9807;48.258;12.690;2022-12-18T00:47:54;51.67;;;25.87;;
19341;SDS011;9807;48.258;12.690;2022-12-18T00:50:24;47.53;;;23.97;;
19341;SDS011;9807;48.258;12.690;2022-12-18T00:52:51;44.80;;;22.83;;
19341;SDS011;9807;48.258;12.690;2022-12-18T00:55:17;43.10;;;22.07;;
19341;SDS011;9807;48.258;12.690;2022-12-18T00:57:43;48.23;;;23.90;;
19341;SDS011;9807;48.258;12.690;2022-12-18T01:00:11;47.53;;;23.67;;
19341;SDS011;9807;48.258;12.690;2022-12-18T01:02:38;49.00;;;23.17;;
19341;SDS011;9807;48.258;12.690;2022-12-18T01:05:05;46.53;;;23.37;;
19341;SDS011;9807;48.258;12.690;2022-12-18T01:07:31;46.30;;;23.20;;
19341;SDS011;9807;48.258;12.690;2022-12-18T01:09:57;44.87;;;23.00;;
19341;SDS011;9807;48.258;12.690;2022-12-18T01:12:23;47.83;;;22.97;;
19341;SDS011;9807;48.258;12.690;2022-12-18T01:14:48;41.93;;;21.77;;
19341;SDS011;9807;48.258;12.690;2022-12-18T01:17:14;46.40;;;23.10;;
19341;SDS011;9807;48.258;12.690;2022-12-18T01:19:43;47.43;;;23.97;;
19341;SDS011;9807;48.258;12.690;2022-12-18T01:22:08;47.57;;;24.00;;
19341;SDS011;9807;48.258;12.690;2022-12-18T01:24:34;47.00;;;22.53;;
19341;SDS011;9807;48.258;12.690;2022-12-18T01:27:00;45.87;;;22.50;;
19341;SDS011;9807;48.258;12.690;2022-12-18T01:29:25;49.07;;;23.80;;
19341;SDS011;9807;48.258;12.690;2022-12-18T01:31:54;42.73;;;22.57;;
19341;SDS011;9807;48.258;12.690;2022-12-18T01:34:20;46.60;;;23.17;;
19341;SDS011;9807;48.258;12.690;2022-12-18T01:36:46;44.50;;;22.93;;
19341;SDS011;9807;48.258;12.690;2022-12-18T01:39:12;42.70;;;22.63;;
19341;SDS011;9807;48.258;12.690;2022-12-18T01:41:39;48.90;;;23.07;;
19341;SDS011;9807;48.258;12.690;2022-12-18T01:47:22;50.13;;;24.17;;
19341;SDS011;9807;48.258;12.690;2022-12-18T01:49:49;45.57;;;23.00;;
19341;SDS011;9807;48.258;12.690;2022-12-18T01:52:15;44.10;;;23.00;;
19341;SDS011;9807;48.258;12.690;2022-12-18T01:54:43;50.03;;;23.73;;
19341;SDS011;9807;48.258;12.690;2022-12-18T01:57:09;45.53;;;23.50;;
19341;SDS011;9807;48.258;12.690;2022-12-18T01:59:36;41.70;;;21.70;;
19341;SDS011;9807;48.258;12.690;2022-12-18T02:28:16;52.93;;;25.17;;
19341;SDS011;9807;48.258;12.690;2022-12-18T02:30:47;47.57;;;23.40;;
19341;SDS011;9807;48.258;12.690;2022-12-18T02:33:18;50.67;;;23.53;;
19341;SDS011;9807;48.258;12.690;2022-12-18T02:35:45;48.87;;;23.57;;
19341;SDS011;9807;48.258;12.690;2022-12-18T02:38:13;45.27;;;22.83;;
19341;SDS011;9807;48.258;12.690;2022-12-18T02:40:40;43.20;;;21.53;;
19341;SDS011;9807;48.258;12.690;2022-12-18T02:43:09;48.20;;;22.27;;
19341;SDS011;9807;48.258;12.690;2022-12-18T02:45:45;43.77;;;21.23;;
19341;SDS011;9807;48.258;12.690;2022-12-18T02:48:25;44.23;;;21.77;;
19341;SDS011;9807;48.258;12.690;2022-12-18T02:54:05;46.57;;;21.73;;
19341;SDS011;9807;48.258;12.690;2022-12-18T02:56:37;44.20;;;22.33;;
19341;SDS011;9807;48.258;12.690;2022-12-18T02:59:09;41.60;;;21.27;;
19341;SDS011;9807;48.258;12.690;2022-12-18T03:01:50;48.73;;;23.30;;
19341;SDS011;9807;48.258;12.690;2022-12-18T03:04:27;45.57;;;22.50;;
19341;SDS011;9807;48.258;12.690;2022-12-18T03:07:01;40.03;;;20.27;;
19341;SDS011;9807;48.258;12.690;2022-12-18T03:09:34;42.47;;;20.70;;
19341;SDS011;9807;48.258;12.690;2022-12-18T03:12:15;43.87;;;21.60;;
19341;SDS011;9807;48.258;12.690;2022-12-18T03:14:49;41.47;;;20.43;;
19341;SDS011;9807;48.258;12.690;2022-12-18T03:17:26;42.20;;;20.70;;
19341;SDS011;9807;48.258;12.690;2022-12-18T03:19:56;44.03;;;22.27;;
19341;SDS011;9807;48.258;12.690;2022-12-18T03:22:25;42.63;;;21.13;;
19341;SDS011;9807;48.258;12.690;2022-12-18T03:24:54;42.73;;;21.03;;
19341;SDS011;9807;48.258;12.690;2022-12-18T03:27:25;44.97;;;21.90;;
19341;SDS011;9807;48.258;12.690;2022-12-18T03:29:56;50.23;;;23.23;;
19341;SDS011;9807;48.258;12.690;2022-12-18T03:32:33;46.30;;;21.73;;
19341;SDS011;9807;48.258;12.690;2022-12-18T03:35:11;46.10;;;22.63;;
19341;SDS011;9807;48.258;12.690;2022-12-18T03:37:39;42.93;;;21.20;;
19341;SDS011;9807;48.258;12.690;2022-12-18T03:40:05;46.13;;;22.23;;
19341;SDS011;9807;48.258;12.690;2022-12-18T03:42:43;42.17;;;21.93;;
19341;SDS011;9807;48.258;12.690;2022-12-18T03:45:19;45.30;;;21.60;;
19341;SDS011;9807;48.258;12.690;2022-12-18T03:48:06;48.43;;;22.73;;
19341;SDS011;9807;48.258;12.690;2022-12-18T03:51:00;45.43;;;21.50;;
19341;SDS011;9807;48.258;12.690;2022-12-18T03:56:01;45.43;;;22.93;;
19341;SDS011;9807;48.258;12.690;2022-12-18T03:58:27;47.57;;;23.27;;
19341;SDS011;9807;48.258;12.690;2022-12-18T04:01:00;45.87;;;22.47;;
19341;SDS011;9807;48.258;12.690;2022-12-18T04:03:28;49.10;;;22.77;;
19341;SDS011;9807;48.258;12.690;2022-12-18T04:05:55;49.70;;;23.53;;
19341;SDS011;9807;48.258;12.690;2022-12-18T04:08:26;47.93;;;21.87;;
19341;SDS011;9807;48.258;12.690;2022-12-18T04:10:52;47.07;;;21.63;;
19341;SDS011;9807;48.258;12.690;2022-12-18T04:13:21;47.60;;;22.60;;
19341;SDS011;9807;48.258;12.690;2022-12-18T04:15:53;46.83;;;21.37;;
19341;SDS011;9807;48.258;12.690;2022-12-18T04:18:25;48.17;;;23.00;;
19341;SDS011;9807;48.258;12.690;2022-12-18T04:20:54;43.00;;;21.13;;
19341;SDS011;9807;48.258;12.690;2022-12-18T04:23:19;44.87;;;22.40;;
19341;SDS011;9807;48.258;12.690;2022-12-18T04:25:46;43.60;;;21.20;;
19341;SDS011;9807;48.258;12.690;2022-12-18T04:28:12;41.60;;;19.90;;
19341;SDS011;9807;48.258;12.690;2022-12-18T04:30:38;46.47;;;21.90;;
19341;SDS011;9807;48.258;12.690;2022-12-18T04:33:07;45.07;;;22.30;;
19341;SDS011;9807;48.258;12.690;2022-12-18T04:35:37;44.50;;;21.20;;
19341;SDS011;9807;48.258;12.690;2022-12-18T04:38:05;45.47;;;21.87;;
19341;SDS011;9807;48.258;12.690;2022-12-18T04:40:31;45.80;;;22.13;;
19341;SDS011;9807;48.258;12.690;2022-12-18T04:42:57;45.47;;;22.23;;
19341;SDS011;9807;48.258;12.690;2022-12-18T04:45:22;46.47;;;22.27;;
19341;SDS011;9807;48.258;12.690;2022-12-18T04:47:48;46.70;;;22.20;;
19341;SDS011;9807;48.258;12.690;2022-12-18T04:50:14;46.20;;;22.27;;
19341;SDS011;9807;48.258;12.690;2022-12-18T04:52:39;44.43;;;21.67;;
19341;SDS011;9807;48.258;12.690;2022-12-18T04:55:05;43.70;;;20.87;;
19341;SDS011;9807;48.258;12.690;2022-12-18T04:57:31;43.97;;;22.07;;
19341;SDS011;9807;48.258;12.690;2022-12-18T04:59:57;43.83;;;21.10;;
19341;SDS011;9807;48.258;12.690;2022-12-18T05:02:22;41.97;;;21.53;;
19341;SDS011;9807;48.258;12.690;2022-12-18T05:04:48;41.77;;;21.40;;
19341;SDS011;9807;48.258;12.690;2022-12-18T05:07:14;48.17;;;23.70;;
19341;SDS011;9807;48.258;12.690;2022-12-18T05:09:40;45.93;;;22.40;;
19341;SDS011;9807;48.258;12.690;2022-12-18T05:12:05;43.40;;;21.67;;
19341;SDS011;9807;48.258;12.690;2022-12-18T05:14:31;45.93;;;22.67;;
19341;SDS011;9807;48.258;12.690;2022-12-18T05:16:57;44.53;;;21.87;;
19341;SDS011;9807;48.258;12.690;2022-12-18T05:19:22;45.47;;;22.27;;
19341;SDS011;9807;48.258;12.690;2022-12-18T05:21:48;38.70;;;20.23;;
19341;SDS011;9807;48.258;12.690;2022-12-18T05:24:13;44.17;;;21.77;;
19341;SDS011;9807;48.258;12.690;2022-12-18T05:26:39;46.83;;;22.37;;
19341;SDS011;9807;48.258;12.690;2022-12-18T05:29:05;45.63;;;21.47;;
19341;SDS011;9807;48.258;12.690;2022-12-18T05:31:30;38.53;;;19.77;;
19341;SDS011;9807;48.258;12.690;2022-12-18T05:33:57;45.03;;;21.03;;
19341;SDS011;9807;48.258;12.690;2022-12-18T05:36:22;45.40;;;21.30;;
19341;SDS011;9807;48.258;12.690;2022-12-18T05:38:48;40.27;;;20.47;;
19341;SDS011;9807;48.258;12.690;2022-12-18T05:41:14;39.57;;;20.23;;
19341;SDS011;9807;48.258;12.690;2022-12-18T05:43:40;45.90;;;21.53;;
19341;SDS011;9807;48.258;12.690;2022-12-18T05:46:06;41.03;;;20.47;;
19341;SDS011;9807;48.258;12.690;2022-12-18T05:48:40;44.33;;;21.07;;
19341;SDS011;9807;48.258;12.690;2022-12-18T05:51:07;39.47;;;19.90;;
19341;SDS011;9807;48.258;12.690;2022-12-18T05:53:35;41.73;;;21.33;;
19341;SDS011;9807;48.258;12.690;2022-12-18T05:56:05;40.87;;;21.57;;
19341;SDS011;9807;48.258;12.690;2022-12-18T05:58:33;38.73;;;19.43;;
19341;SDS011;9807;48.258;12.690;2022-12-18T06:01:06;37.13;;;18.27;;
19341;SDS011;9807;48.258;12.690;2022-12-18T06:03:42;41.50;;;20.17;;
19341;SDS011;9807;48.258;12.690;2022-12-18T06:06:21;44.17;;;22.57;;
19341;SDS011;9807;48.258;12.690;2022-12-18T06:08:49;41.67;;;20.63;;
19341;SDS011;9807;48.258;12.690;2022-12-18T06:11:19;42.57;;;20.13;;
19341;SDS011;9807;48.258;12.690;2022-12-18T06:13:49;37.90;;;19.37;;
19341;SDS011;9807;48.258;12.690;2022-12-18T06:16:16;40.30;;;20.87;;
19341;SDS011;9807;48.258;12.690;2022-12-18T06:18:41;41.03;;;20.03;;
19341;SDS011;9807;48.258;12.690;2022-12-18T06:21:07;42.20;;;20.77;;
19341;SDS011;9807;48.258;12.690;2022-12-18T06:23:36;38.43;;;19.80;;
19341;SDS011;9807;48.258;12.690;2022-12-18T06:26:03;38.97;;;19.23;;
19341;SDS011;9807;48.258;12.690;2022-12-18T06:28:34;38.90;;;19.40;;
19341;SDS011;9807;48.258;12.690;2022-12-18T06:31:00;40.00;;;20.23;;
19341;SDS011;9807;48.258;12.690;2022-12-18T06:33:28;37.60;;;19.27;;
19341;SDS011;9807;48.258;12.690;2022-12-18T06:35:54;37.00;;;18.43;;
19341;SDS011;9807;48.258;12.690;2022-12-18T06:38:25;38.83;;;19.83;;
19341;SDS011;9807;48.258;12.690;2022-12-18T06:40:51;34.83;;;18.20;;
19341;SDS011;9807;48.258;12.690;2022-12-18T06:43:16;35.50;;;18.37;;
19341;SDS011;9807;48.258;12.690;2022-12-18T06:45:42;34.20;;;17.10;;
19341;SDS011;9807;48.258;12.690;2022-12-18T06:48:08;43.30;;;21.67;;
19341;SDS011;9807;48.258;12.690;2022-12-18T06:50:33;36.07;;;18.23;;
19341;SDS011;9807;48.258;12.690;2022-12-18T06:52:59;38.00;;;18.80;;
19341;SDS011;9807;48.258;12.690;2022-12-18T06:55:25;39.27;;;19.17;;
19341;SDS011;9807;48.258;12.690;2022-12-18T06:57:51;39.80;;;20.10;;
19341;SDS011;9807;48.258;12.690;2022-12-18T07:00:16;38.97;;;19.70;;
19341;SDS011;9807;48.258;12.690;2022-12-18T07:02:42;43.70;;;21.20;;
19341;SDS011;9807;48.258;12.690;2022-12-18T07:05:08;40.43;;;19.47;;
19341;SDS011;9807;48.258;12.690;2022-12-18T07:07:36;40.73;;;20.00;;
19341;SDS011;9807;48.258;12.690;2022-12-18T07:10:02;39.83;;;20.20;;
19341;SDS011;9807;48.258;12.690;2022-12-18T07:12:28;39.20;;;18.97;;
19341;SDS011;9807;48.258;12.690;2022-12-18T07:14:54;44.93;;;21.17;;
19341;SDS011;9807;48.258;12.690;2022-12-18T07:17:20;46.53;;;21.10;;
19341;SDS011;9807;48.258;12.690;2022-12-18T07:19:46;42.17;;;20.73;;
19341;SDS011;9807;48.258;12.690;2022-12-18T07:22:11;41.10;;;19.33;;
19341;SDS011;9807;48.258;12.690;2022-12-18T07:24:37;41.13;;;19.23;;
19341;SDS011;9807;48.258;12.690;2022-12-18T07:27:03;40.63;;;20.37;;
19341;SDS011;9807;48.258;12.690;2022-12-18T07:29:28;40.67;;;20.00;;
19341;SDS011;9807;48.258;12.690;2022-12-18T07:31:54;41.00;;;20.37;;
19341;SDS011;9807;48.258;12.690;2022-12-18T07:34:20;39.37;;;19.07;;
19341;SDS011;9807;48.258;12.690;2022-12-18T07:36:46;39.13;;;18.90;;
19341;SDS011;9807;48.258;12.690;2022-12-18T07:39:11;38.47;;;19.07;;
19341;SDS011;9807;48.258;12.690;2022-12-18T07:41:37;37.50;;;18.97;;
19341;SDS011;9807;48.258;12.690;2022-12-18T07:44:03;36.83;;;18.83;;
19341;SDS011;9807;48.258;12.690;2022-12-18T07:46:29;38.63;;;19.00;;
19341;SDS011;9807;48.258;12.690;2022-12-18T07:48:54;42.33;;;19.30;;
19341;SDS011;9807;48.258;12.690;2022-12-18T07:51:20;39.63;;;18.60;;
19341;SDS011;9807;48.258;12.690;2022-12-18T07:53:49;40.53;;;18.83;;
19341;SDS011;9807;48.258;12.690;2022-12-18T07:56:14;36.63;;;17.73;;
19341;SDS011;9807;48.258;12.690;2022-12-18T07:58:40;35.10;;;18.17;;
19341;SDS011;9807;48.258;12.690;2022-12-18T08:01:07;42.97;;;19.50;;
19341;SDS011;9807;48.258;12.690;2022-12-18T08:03:35;38.73;;;19.47;;
19341;SDS011;9807;48.258;12.690;2022-12-18T08:06:02;36.17;;;18.23;;
19341;SDS011;9807;48.258;12.690;2022-12-18T08:08:29;36.53;;;18.23;;
19341;SDS011;9807;48.258;12.690;2022-12-18T08:10:55;36.83;;;18.50;;
19341;SDS011;9807;48.258;12.690;2022-12-18T08:13:24;38.67;;;19.33;;
19341;SDS011;9807;48.258;12.690;2022-12-18T08:16:00;37.70;;;18.43;;
19341;SDS011;9807;48.258;12.690;2022-12-18T08:18:34;36.03;;;18.07;;
19341;SDS011;9807;48.258;12.690;2022-12-18T08:21:11;37.10;;;18.43;;
19341;SDS011;9807;48.258;12.690;2022-12-18T08:23:40;39.23;;;19.07;;
19341;SDS011;9807;48.258;12.690;2022-12-18T08:26:06;36.77;;;19.10;;
19341;SDS011;9807;48.258;12.690;2022-12-18T08:28:32;37.37;;;19.10;;
19341;SDS011;9807;48.258;12.690;2022-12-18T08:30:58;36.27;;;19.67;;
19341;SDS011;9807;48.258;12.690;2022-12-18T08:33:24;42.17;;;19.77;;
19341;SDS011;9807;48.258;12.690;2022-12-18T08:35:51;40.03;;;19.27;;
19341;SDS011;9807;48.258;12.690;2022-12-18T08:38:17;40.30;;;18.40;;
19341;SDS011;9807;48.258;12.690;2022-12-18T08:40:43;41.40;;;19.53;;
19341;SDS011;9807;48.258;12.690;2022-12-18T08:43:09;38.67;;;18.23;;
19341;SDS011;9807;48.258;12.690;2022-12-18T08:45:53;36.97;;;18.40;;
19341;SDS011;9807;48.258;12.690;2022-12-18T08:48:19;36.47;;;17.77;;
19341;SDS011;9807;48.258;12.690;2022-12-18T08:51:19;38.50;;;18.57;;
19341;SDS011;9807;48.258;12.690;2022-12-18T08:53:37;43.37;;;20.30;;
19341;SDS011;9807;48.258;12.690;2022-12-18T08:56:03;38.67;;;18.20;;
19341;SDS011;9807;48.258;12.690;2022-12-18T08:58:30;37.33;;;18.47;;
19341;SDS011;9807;48.258;12.690;2022-12-18T09:00:59;35.63;;;17.70;;
19341;SDS011;9807;48.258;12.690;2022-12-18T09:03:29;38.90;;;18.33;;
19341;SDS011;9807;48.258;12.690;2022-12-18T09:05:55;38.83;;;18.87;;
19341;SDS011;9807;48.258;12.690;2022-12-18T09:08:20;42.03;;;20.07;;
19341;SDS011;9807;48.258;12.690;2022-12-18T09:10:47;41.67;;;19.20;;
19341;SDS011;9807;48.258;12.690;2022-12-18T09:13:14;36.80;;;18.60;;
19341;SDS011;9807;48.258;12.690;2022-12-18T09:15:44;37.70;;;18.90;;
19341;SDS011;9807;48.258;12.690;2022-12-18T09:18:12;36.77;;;17.83;;
19341;SDS011;9807;48.258;12.690;2022-12-18T09:20:38;40.50;;;19.60;;
19341;SDS011;9807;48.258;12.690;2022-12-18T09:23:04;37.70;;;17.87;;
19341;SDS011;9807;48.258;12.690;2022-12-18T09:25:31;36.53;;;18.30;;
19341;SDS011;9807;48.258;12.690;2022-12-18T09:27:58;34.63;;;17.60;;
19341;SDS011;9807;48.258;12.690;2022-12-18T09:30:25;37.03;;;18.00;;
19341;SDS011;9807;48.258;12.690;2022-12-18T09:32:54;36.33;;;18.47;;
19341;SDS011;9807;48.258;12.690;2022-12-18T09:35:20;36.30;;;18.07;;
19341;SDS011;9807;48.258;12.690;2022-12-18T09:37:46;37.80;;;18.30;;
19341;SDS011;9807;48.258;12.690;2022-12-18T09:40:19;33.93;;;17.03;;
19341;SDS011;9807;48.258;12.690;2022-12-18T09:42:48;35.50;;;16.67;;
19341;SDS011;9807;48.258;12.690;2022-12-18T09:45:22;33.60;;;16.13;;
19341;SDS011;9807;48.258;12.690;2022-12-18T09:47:49;34.53;;;17.30;;
19341;SDS011;9807;48.258;12.690;2022-12-18T09:50:27;33.90;;;16.47;;
19341;SDS011;9807;48.258;12.690;2022-12-18T09:52:59;39.03;;;17.83;;
19341;SDS011;9807;48.258;12.690;2022-12-18T09:55:36;34.13;;;17.03;;
19341;SDS011;9807;48.258;12.690;2022-12-18T09:58:12;34.67;;;17.53;;
19341;SDS011;9807;48.258;12.690;2022-12-18T10:00:52;37.17;;;18.50;;
19341;SDS011;9807;48.258;12.690;2022-12-18T10:03:18;33.67;;;17.07;;
19341;SDS011;9807;48.258;12.690;2022-12-18T10:06:02;33.47;;;16.80;;
19341;SDS011;9807;48.258;12.690;2022-12-18T10:11:32;32.10;;;16.30;;
19341;SDS011;9807;48.258;12.690;2022-12-18T10:14:18;36.17;;;17.90;;
19341;SDS011;9807;48.258;12.690;2022-12-18T10:19:32;35.00;;;17.13;;
19341;SDS011;9807;48.258;12.690;2022-12-18T10:22:19;34.40;;;17.47;;
19341;SDS011;9807;48.258;12.690;2022-12-18T10:25:34;33.03;;;16.57;;
19341;SDS011;9807;48.258;12.690;2022-12-18T10:27:43;32.97;;;16.63;;
19341;SDS011;9807;48.258;12.690;2022-12-18T10:30:13;33.67;;;17.23;;
19341;SDS011;9807;48.258;12.690;2022-12-18T10:32:40;39.00;;;18.63;;
19341;SDS011;9807;48.258;12.690;2022-12-18T10:35:16;35.87;;;17.63;;
19341;SDS011;9807;48.258;12.690;2022-12-18T10:43:34;34.27;;;16.70;;
19341;SDS011;9807;48.258;12.690;2022-12-18T10:46:12;32.10;;;16.60;;
19341;SDS011;9807;48.258;12.690;2022-12-18T10:51:20;38.97;;;18.60;;
19341;SDS011;9807;48.258;12.690;2022-12-18T10:56:39;34.43;;;17.87;;
19341;SDS011;9807;48.258;12.690;2022-12-18T10:59:10;35.50;;;17.53;;
19341;SDS011;9807;48.258;12.690;2022-12-18T11:04:24;44.23;;;19.53;;
19341;SDS011;9807;48.258;12.690;2022-12-18T11:06:55;34.23;;;17.30;;
19341;SDS011;9807;48.258;12.690;2022-12-18T11:09:26;36.03;;;17.70;;
19341;SDS011;9807;48.258;12.690;2022-12-18T11:11:58;38.00;;;18.97;;
19341;SDS011;9807;48.258;12.690;2022-12-18T11:16:53;35.90;;;17.23;;
19341;SDS011;9807;48.258;12.690;2022-12-18T11:22:02;36.33;;;18.03;;
19341;SDS011;9807;48.258;12.690;2022-12-18T11:24:49;34.30;;;16.83;;
19341;SDS011;9807;48.258;12.690;2022-12-18T11:27:36;31.07;;;15.57;;
19341;SDS011;9807;48.258;12.690;2022-12-18T11:30:13;32.37;;;17.47;;
19341;SDS011;9807;48.258;12.690;2022-12-18T11:32:48;40.60;;;18.57;;
19341;SDS011;9807;48.258;12.690;2022-12-18T11:37:59;36.63;;;17.80;;
19341;SDS011;9807;48.258;12.690;2022-12-18T11:40:33;35.37;;;17.43;;
19341;SDS011;9807;48.258;12.690;2022-12-18T11:45:55;35.30;;;17.00;;
19341;SDS011;9807;48.258;12.690;2022-12-18T11:48:49;33.93;;;16.93;;
19341;SDS011;9807;48.258;12.690;2022-12-18T11:51:29;35.20;;;15.87;;
19341;SDS011;9807;48.258;12.690;2022-12-18T11:54:13;33.77;;;16.37;;
19341;SDS011;9807;48.258;12.690;2022-12-18T11:59:36;36.30;;;16.30;;
19341;SDS011;9807;48.258;12.690;2022-12-18T12:02:33;33.80;;;16.67;;
19341;SDS011;9807;48.258;12.690;2022-12-18T12:08:03;31.30;;;16.10;;
19341;SDS011;9807;48.258;12.690;2022-12-18T12:16:13;29.87;;;14.97;;
19341;SDS011;9807;48.258;12.690;2022-12-18T12:21:46;28.43;;;15.33;;
19341;SDS011;9807;48.258;12.690;2022-12-18T12:35:32;34.63;;;17.30;;
19341;SDS011;9807;48.258;12.690;2022-12-18T12:40:46;34.23;;;16.60;;
19341;SDS011;9807;48.258;12.690;2022-12-18T12:43:21;36.60;;;16.87;;
19341;SDS011;9807;48.258;12.690;2022-12-18T12:46:07;33.20;;;16.47;;
19341;SDS011;9807;48.258;12.690;2022-12-18T12:48:40;35.67;;;15.70;;
19341;SDS011;9807;48.258;12.690;2022-12-18T12:51:21;31.67;;;16.43;;
19341;SDS011;9807;48.258;12.690;2022-12-18T12:53:50;34.03;;;16.70;;
19341;SDS011;9807;48.258;12.690;2022-12-18T12:56:17;32.73;;;16.63;;
19341;SDS011;9807;48.258;12.690;2022-12-18T13:13:12;35.60;;;16.70;;
19341;SDS011;9807;48.258;12.690;2022-12-18T13:15:42;33.30;;;16.47;;
19341;SDS011;9807;48.258;12.690;2022-12-18T13:18:22;33.83;;;16.47;;
19341;SDS011;9807;48.258;12.690;2022-12-18T13:25:51;31.13;;;15.77;;
19341;SDS011;9807;48.258;12.690;2022-12-18T13:28:23;31.93;;;15.33;;
19341;SDS011;9807;48.258;12.690;2022-12-18T13:31:11;33.83;;;16.30;;
19341;SDS011;9807;48.258;12.690;2022-12-18T13:33:44;31.67;;;15.87;;
19341;SDS011;9807;48.258;12.690;2022-12-18T13:41:46;30.63;;;14.90;;
19341;SDS011;9807;48.258;12.690;2022-12-18T13:44:36;32.47;;;15.40;;
19341;SDS011;9807;48.258;12.690;2022-12-18T13:47:25;36.77;;;16.23;;
19341;SDS011;9807;48.258;12.690;2022-12-18T13:49:56;30.73;;;15.13;;
19341;SDS011;9807;48.258;12.690;2022-12-18T13:52:25;29.93;;;15.13;;
19341;SDS011;9807;48.258;12.690;2022-12-18T13:55:01;31.30;;;15.60;;
19341;SDS011;9807;48.258;12.690;2022-12-18T13:57:34;28.60;;;14.13;;
19341;SDS011;9807;48.258;12.690;2022-12-18T14:02:47;28.70;;;13.93;;
19341;SDS011;9807;48.258;12.690;2022-12-18T14:08:01;31.80;;;16.40;;
19341;SDS011;9807;48.258;12.690;2022-12-18T14:10:35;29.97;;;15.87;;
19341;SDS011;9807;48.258;12.690;2022-12-18T14:13:05;27.97;;;14.20;;
19341;SDS011;9807;48.258;12.690;2022-12-18T14:15:34;34.33;;;17.40;;
19341;SDS011;9807;48.258;12.690;2022-12-18T14:20:50;26.80;;;13.70;;
19341;SDS011;9807;48.258;12.690;2022-12-18T14:25:58;28.80;;;15.00;;
19341;SDS011;9807;48.258;12.690;2022-12-18T14:28:27;26.80;;;13.87;;
19341;SDS011;9807;48.258;12.690;2022-12-18T14:31:01;29.30;;;14.77;;
19341;SDS011;9807;48.258;12.690;2022-12-18T14:33:27;30.63;;;15.13;;
19341;SDS011;9807;48.258;12.690;2022-12-18T14:36:00;29.30;;;14.37;;
19341;SDS011;9807;48.258;12.690;2022-12-18T14:38:29;27.43;;;13.93;;
19341;SDS011;9807;48.258;12.690;2022-12-18T14:40:56;24.40;;;12.97;;
19341;SDS011;9807;48.258;12.690;2022-12-18T14:43:23;37.90;;;18.60;;
19341;SDS011;9807;48.258;12.690;2022-12-18T14:45:49;26.67;;;14.07;;
19341;SDS011;9807;48.258;12.690;2022-12-18T14:50:45;26.93;;;14.43;;
19341;SDS011;9807;48.258;12.690;2022-12-18T14:53:32;27.90;;;14.53;;
19341;SDS011;9807;48.258;12.690;2022-12-18T14:55:59;25.83;;;13.83;;
19341;SDS011;9807;48.258;12.690;2022-12-18T14:58:26;27.27;;;13.87;;
19341;SDS011;9807;48.258;12.690;2022-12-18T15:00:52;26.53;;;13.53;;
19341;SDS011;9807;48.258;12.690;2022-12-18T15:03:18;26.97;;;14.20;;
19341;SDS011;9807;48.258;12.690;2022-12-18T15:05:45;25.40;;;13.20;;
19341;SDS011;9807;48.258;12.690;2022-12-18T15:08:45;27.57;;;13.47;;
19341;SDS011;9807;48.258;12.690;2022-12-18T15:11:22;24.70;;;13.30;;
19341;SDS011;9807;48.258;12.690;2022-12-18T15:13:59;29.50;;;15.13;;
19341;SDS011;9807;48.258;12.690;2022-12-18T15:16:54;25.47;;;13.40;;
19341;SDS011;9807;48.258;12.690;2022-12-18T15:19:21;25.10;;;13.10;;
19341;SDS011;9807;48.258;12.690;2022-12-18T15:21:52;25.53;;;14.10;;
19341;SDS011;9807;48.258;12.690;2022-12-18T15:24:18;27.43;;;14.00;;
19341;SDS011;9807;48.258;12.690;2022-12-18T15:26:49;25.80;;;13.47;;
19341;SDS011;9807;48.258;12.690;2022-12-18T15:29:19;27.23;;;14.00;;
19341;SDS011;9807;48.258;12.690;2022-12-18T15:32:10;26.07;;;13.80;;
19341;SDS011;9807;48.258;12.690;2022-12-18T15:34:44;24.70;;;13.67;;
19341;SDS011;9807;48.258;12.690;2022-12-18T15:37:10;28.33;;;13.67;;
19341;SDS011;9807;48.258;12.690;2022-12-18T15:39:35;26.43;;;13.77;;
19341;SDS011;9807;48.258;12.690;2022-12-18T15:42:01;27.80;;;13.83;;
19341;SDS011;9807;48.258;12.690;2022-12-18T15:44:45;27.80;;;14.03;;
19341;SDS011;9807;48.258;12.690;2022-12-18T15:47:11;27.77;;;13.67;;
19341;SDS011;9807;48.258;12.690;2022-12-18T15:49:38;28.20;;;14.63;;
19341;SDS011;9807;48.258;12.690;2022-12-18T15:52:04;28.20;;;14.37;;
19341;SDS011;9807;48.258;12.690;2022-12-18T15:54:30;27.33;;;14.40;;
19341;SDS011;9807;48.258;12.690;2022-12-18T15:57:15;26.83;;;14.53;;
19341;SDS011;9807;48.258;12.690;2022-12-18T15:59:54;25.07;;;13.50;;
19341;SDS011;9807;48.258;12.690;2022-12-18T16:02:23;30.17;;;15.07;;
19341;SDS011;9807;48.258;12.690;2022-12-18T16:04:49;29.63;;;14.83;;
19341;SDS011;9807;48.258;12.690;2022-12-18T16:07:17;25.47;;;13.60;;
19341;SDS011;9807;48.258;12.690;2022-12-18T16:09:43;28.10;;;14.30;;
19341;SDS011;9807;48.258;12.690;2022-12-18T16:12:14;27.37;;;15.47;;
19341;SDS011;9807;48.258;12.690;2022-12-18T16:14:42;29.53;;;14.87;;
19341;SDS011;9807;48.258;12.690;2022-12-18T16:17:11;28.10;;;13.93;;
19341;SDS011;9807;48.258;12.690;2022-12-18T16:19:38;31.00;;;15.97;;
19341;SDS011;9807;48.258;12.690;2022-12-18T16:22:04;29.40;;;15.23;;
19341;SDS011;9807;48.258;12.690;2022-12-18T16:24:32;28.60;;;15.17;;
19341;SDS011;9807;48.258;12.690;2022-12-18T16:27:00;28.20;;;14.63;;
19341;SDS011;9807;48.258;12.690;2022-12-18T16:29:27;29.53;;;16.10;;
19341;SDS011;9807;48.258;12.690;2022-12-18T16:32:02;29.30;;;16.00;;
19341;SDS011;9807;48.258;12.690;2022-12-18T16:34:29;29.33;;;14.83;;
19341;SDS011;9807;48.258;12.690;2022-12-18T16:37:03;29.17;;;16.30;;
19341;SDS011;9807;48.258;12.690;2022-12-18T16:39:32;31.47;;;16.50;;
19341;SDS011;9807;48.258;12.690;2022-12-18T16:41:59;33.77;;;16.83;;
19341;SDS011;9807;48.258;12.690;2022-12-18T16:44:29;28.50;;;15.27;;
19341;SDS011;9807;48.258;12.690;2022-12-18T16:46:54;28.13;;;15.53;;
19341;SDS011;9807;48.258;12.690;2022-12-18T16:49:26;31.53;;;15.70;;